This is the latest recevied weather packets stored in our database for station/object EA1IDU-12. If no packets are shown the sender has not sent any weather packets the latest 10 day(s).
| Time | Temp. | Humidity | Pressure | Rain* | Wind** | Luminosity | Snow |
|---|---|---|---|---|---|---|---|
| 1788356405 | 34.44° C | 25% | 1031.6 hPa | - | - | - | - |
| 1788355505 | 33.89° C | 25% | 1031.6 hPa | - | - | - | - |
| 1788354605 | 33.89° C | 26% | 1031.8 hPa | - | - | - | - |
| 1788353705 | 33.33° C | 28% | 1031.8 hPa | - | - | - | - |
| 1788352804 | 33.33° C | 31% | 1032 hPa | - | - | - | - |
| 1788351904 | 32.22° C | 32% | 1032.1 hPa | - | - | - | - |
| 1788351004 | 31.67° C | 36% | 1032.2 hPa | - | - | - | - |
| 1788350104 | 31.67° C | 38% | 1032.3 hPa | - | - | - | - |
| 1788349204 | 30.56° C | 41% | 1032.3 hPa | - | - | - | - |
| 1788348303 | 30.56° C | 44% | 1032.5 hPa | - | - | - | - |
| 1788347403 | 30° C | 47% | 1032.5 hPa | - | - | - | - |
| 1788346503 | 29.44° C | 51% | 1032.7 hPa | - | - | - | - |
| 1788345603 | 28.33° C | 54% | 1032.8 hPa | - | - | - | - |
| 1788344703 | 27.22° C | 58% | 1033 hPa | - | - | - | - |
| 1788343803 | 27.22° C | 62% | 1033 hPa | - | - | - | - |
| 1788342903 | 25.56° C | 65% | 1033 hPa | - | - | - | - |
| 1788342002 | 23.89° C | 67% | 1033 hPa | - | - | - | - |
| 1788341102 | 22.78° C | 69% | 1032.9 hPa | - | - | - | - |
| 1788340202 | 21.67° C | 71% | 1032.9 hPa | - | - | - | - |
| 1788339302 | 19.44° C | 73% | 1032.8 hPa | - | - | - | - |
| 1788338402 | 17.78° C | 71% | 1032.8 hPa | - | - | - | - |
| 1788337502 | 16.11° C | 73% | 1032.7 hPa | - | - | - | - |
| 1788336601 | 15.56° C | 73% | 1032.7 hPa | - | - | - | - |
| 1788335701 | 14.44° C | 73% | 1032.6 hPa | - | - | - | - |
| 1788334801 | 14.44° C | 74% | 1032.7 hPa | - | - | - | - |
* Rain since midnight (hover to see other rain measurements)
** Current wind speed in m/s (hover to see current wind gust speed)